createdAt,value
2023-03-16T00:04:17.122Z,99868.44
2023-03-16T00:06:46.281Z,99868.61
2023-03-16T00:09:15.465Z,99871.30
2023-03-16T00:11:44.770Z,99874.39
2023-03-16T00:14:14.063Z,99877.53
2023-03-16T00:16:43.243Z,99875.74
2023-03-16T00:19:26.833Z,99878.71
2023-03-16T00:22:12.515Z,99880.08
2023-03-16T00:24:56.738Z,99877.98
2023-03-16T00:33:23.127Z,99878.70
2023-03-16T00:51:06.826Z,99857.75
2023-03-16T00:53:40.124Z,99861.26
2023-03-16T00:56:13.865Z,99873.53
2023-03-16T01:01:48.200Z,99877.32
2023-03-16T01:04:36.141Z,99878.59
2023-03-16T01:07:09.100Z,99880.40
2023-03-16T01:09:42.365Z,99886.05
2023-03-16T01:12:17.587Z,99891.87
2023-03-16T01:14:51.158Z,99894.27
2023-03-16T01:17:24.871Z,99898.91
2023-03-16T01:19:57.362Z,99906.42
2023-03-16T01:22:29.985Z,99913.41
2023-03-16T01:25:00.963Z,99921.61
2023-03-16T01:27:34.240Z,99928.58
2023-03-16T01:30:14.694Z,99931.15
2023-03-16T01:33:01.341Z,99931.73
2023-03-16T01:35:49.210Z,99931.20
2023-03-16T01:41:23.405Z,99938.35
2023-03-16T01:43:58.677Z,99941.36
2023-03-16T01:46:32.414Z,99949.41
2023-03-16T01:49:08.860Z,99954.92
2023-03-16T01:51:44.630Z,99956.31
2023-03-16T01:54:25.014Z,99955.52
2023-03-16T01:57:04.738Z,99958.11
2023-03-16T01:59:39.765Z,99954.31
2023-03-16T02:02:12.759Z,99959.36
2023-03-16T02:04:51.547Z,99962.39
2023-03-16T02:07:25.928Z,99967.89
2023-03-16T02:10:02.547Z,99963.10
2023-03-16T02:12:35.013Z,99965.17
2023-03-16T02:15:08.652Z,99960.80
2023-03-16T02:17:42.737Z,99963.70
2023-03-16T02:20:26.384Z,99967.63
2023-03-16T02:22:59.054Z,99974.05
2023-03-16T02:25:37.632Z,99980.09
2023-03-16T02:28:15.637Z,99980.51
2023-03-16T02:30:49.450Z,99985.85
2023-03-16T02:33:22.796Z,99986.02
2023-03-16T02:35:55.314Z,99982.95
2023-03-16T02:38:28.018Z,99988.58
2023-03-16T02:41:02.852Z,99985.20
2023-03-16T02:43:37.327Z,99993.94
2023-03-16T02:46:11.054Z,99991.13
2023-03-16T02:48:47.275Z,99986.07
2023-03-16T02:51:19.662Z,99988.26
2023-03-16T02:53:52.072Z,99992.37
2023-03-16T02:56:24.575Z,99982.23
2023-03-16T02:58:58.057Z,99985.20
2023-03-16T03:01:32.016Z,99984.65
2023-03-16T03:04:04.732Z,99989.15
2023-03-16T03:06:35.432Z,99987.89
2023-03-16T03:09:08.742Z,99991.02
2023-03-16T03:11:41.423Z,99996.14
2023-03-16T03:14:12.043Z,99997.39
2023-03-16T03:16:46.983Z,99996.32
2023-03-16T03:19:19.682Z,100000.40
2023-03-16T03:21:52.234Z,100002.67
2023-03-16T03:24:24.674Z,100011.20
2023-03-16T03:26:57.150Z,100013.33
2023-03-16T03:29:34.776Z,100015.45
2023-03-16T03:32:08.331Z,100020.27
2023-03-16T03:34:42.644Z,100021.30
2023-03-16T03:37:15.132Z,100024.15
2023-03-16T03:39:48.501Z,100026.93
2023-03-16T03:42:24.041Z,100031.15
2023-03-16T03:44:56.581Z,100033.49
2023-03-16T03:47:28.869Z,100036.89
2023-03-16T03:50:01.221Z,100044.17
2023-03-16T03:52:33.596Z,100043.20
2023-03-16T03:55:06.913Z,100043.73
2023-03-16T03:57:39.274Z,100045.17
2023-03-16T04:00:14.721Z,100048.66
2023-03-16T04:02:47.151Z,100044.16
2023-03-16T04:05:19.866Z,100046.98
2023-03-16T04:07:55.437Z,100044.86
2023-03-16T04:10:29.143Z,100047.35
2023-03-16T04:13:02.148Z,100050.33
2023-03-16T04:15:35.494Z,100056.46
2023-03-16T04:18:08.011Z,100065.65
2023-03-16T04:20:40.283Z,100070.08
2023-03-16T04:23:14.193Z,100075.37
2023-03-16T04:25:46.641Z,100079.50
2023-03-16T04:28:19.029Z,100079.86
2023-03-16T04:30:51.537Z,100081.73
2023-03-16T04:33:23.967Z,100089.52
2023-03-16T04:35:56.419Z,100088.67
2023-03-16T04:38:28.932Z,100091.39
2023-03-16T04:41:01.489Z,100096.48
2023-03-16T04:43:34.639Z,100099.21
2023-03-16T04:46:08.176Z,100102.28
2023-03-16T04:48:40.567Z,100106.32
2023-03-16T04:51:12.885Z,100108.71
2023-03-16T04:53:45.917Z,100108.79
2023-03-16T04:56:19.749Z,100115.57
2023-03-16T04:58:53.787Z,100116.42
2023-03-16T05:01:26.326Z,100122.95
2023-03-16T05:03:59.745Z,100129.40
2023-03-16T05:06:32.422Z,100133.52
2023-03-16T05:09:06.199Z,100136.70
2023-03-16T05:11:38.703Z,100146.02
2023-03-16T05:14:09.531Z,100148.63
2023-03-16T05:16:42.963Z,100149.67
2023-03-16T05:19:15.223Z,100157.05
2023-03-16T05:21:47.638Z,100156.77
2023-03-16T05:24:19.992Z,100156.73
2023-03-16T05:26:52.535Z,100159.05
2023-03-16T05:29:25.922Z,100164.99
2023-03-16T05:31:58.335Z,100161.73
2023-03-16T05:34:31.762Z,100164.87
2023-03-16T05:37:04.179Z,100165.69
2023-03-16T05:39:36.936Z,100171.98
2023-03-16T05:42:07.646Z,100179.95
2023-03-16T05:44:40.474Z,100183.46
2023-03-16T05:47:13.857Z,100190.02
2023-03-16T05:49:46.228Z,100195.95
2023-03-16T05:52:18.673Z,100204.14
2023-03-16T05:54:51.167Z,100208.99
2023-03-16T05:57:23.848Z,100209.06
2023-03-16T05:59:54.695Z,100217.20
2023-03-16T06:02:27.180Z,100221.29
2023-03-16T06:04:59.605Z,100222.67
2023-03-16T06:07:31.993Z,100221.94
2023-03-16T06:10:04.844Z,100219.55
2023-03-16T06:12:37.168Z,100223.19
2023-03-16T06:15:12.087Z,100216.95
2023-03-16T06:17:44.466Z,100221.59
2023-03-16T06:20:15.656Z,100222.83
2023-03-16T06:22:48.026Z,100219.70
2023-03-16T06:25:20.808Z,100230.70
2023-03-16T06:27:53.251Z,100236.30
2023-03-16T06:30:25.623Z,100241.21
2023-03-16T06:33:00.447Z,100242.08
2023-03-16T06:35:33.847Z,100242.19
2023-03-16T06:38:06.501Z,100248.52
2023-03-16T06:40:37.305Z,100249.32
2023-03-16T06:43:09.707Z,100255.16
2023-03-16T06:45:42.168Z,100264.36
2023-03-16T06:48:14.836Z,100263.29
2023-03-16T06:50:47.791Z,100262.01
2023-03-16T06:53:20.119Z,100267.10
2023-03-16T06:55:52.607Z,100271.43
2023-03-16T06:58:25.027Z,100271.48
2023-03-16T07:00:57.669Z,100276.61
2023-03-16T07:03:28.718Z,100285.79
2023-03-16T07:06:19.077Z,100290.45
2023-03-16T07:08:51.867Z,100293.24
2023-03-16T07:11:27.751Z,100292.64
2023-03-16T07:14:00.272Z,100300.22
2023-03-16T07:16:33.342Z,100302.73
2023-03-16T07:19:05.871Z,100301.48
2023-03-16T07:21:40.162Z,100304.16
2023-03-16T10:21:56.808Z,100513.23
2023-03-16T10:24:41.159Z,100513.16
2023-03-16T10:27:18.382Z,100516.29
2023-03-16T10:29:50.934Z,100516.58
2023-03-16T10:32:24.297Z,100515.31
2023-03-16T10:35:02.770Z,100512.26
2023-03-16T10:37:36.122Z,100512.32
2023-03-16T10:40:14.198Z,100512.38
2023-03-16T10:42:47.008Z,100511.34
2023-03-16T10:45:25.472Z,100511.57
2023-03-16T10:48:09.360Z,100510.74
2023-03-16T10:50:53.840Z,100518.40
2023-03-16T10:53:35.141Z,100516.48
2023-03-16T10:56:14.885Z,100522.21
2023-03-16T10:59:24.565Z,100520.70
2023-03-16T11:02:01.002Z,100519.48
2023-03-16T11:04:36.018Z,100516.55
2023-03-16T11:07:16.789Z,100517.95
2023-03-16T11:09:50.416Z,100520.17
2023-03-16T11:12:29.129Z,100520.58
2023-03-16T11:15:11.468Z,100521.50
2023-03-16T11:17:54.877Z,100515.47
2023-03-16T11:20:30.910Z,100517.03
2023-03-16T11:23:04.612Z,100520.14
2023-03-16T11:25:42.500Z,100518.17
2023-03-16T11:28:29.831Z,100519.48
2023-03-16T11:31:10.241Z,100516.89
2023-03-16T11:33:43.252Z,100520.17
2023-03-16T11:36:39.821Z,100519.30
2023-03-16T11:39:18.395Z,100517.12
2023-03-16T11:41:59.176Z,100517.23
2023-03-16T11:44:42.217Z,100516.06
2023-03-16T11:47:18.931Z,100517.21
2023-03-16T11:50:00.479Z,100520.21
2023-03-16T11:52:46.397Z,100520.89
2023-03-16T11:55:29.359Z,100526.07
2023-03-16T11:58:12.034Z,100526.05
2023-03-16T12:00:52.495Z,100524.15
2023-03-16T12:03:46.238Z,100525.05
2023-03-16T12:06:27.590Z,100522.48
2023-03-16T12:09:29.224Z,100524.05
2023-03-16T12:12:07.369Z,100524.67
2023-03-16T12:14:43.204Z,100531.23
2023-03-16T12:17:21.937Z,100533.48
2023-03-16T12:26:47.568Z,100538.81
2023-03-16T12:29:27.297Z,100540.58
2023-03-16T12:32:03.619Z,100541.54
2023-03-16T12:34:47.592Z,100541.43
2023-03-16T12:37:30.321Z,100549.90
2023-03-16T12:40:19.594Z,100552.83
2023-03-16T12:43:04.098Z,100554.48
2023-03-16T12:45:41.329Z,100558.10
2023-03-16T12:48:20.903Z,100557.64
2023-03-16T12:50:56.000Z,100556.59
2023-03-16T12:53:45.303Z,100563.35
2023-03-16T12:56:19.558Z,100564.67
2023-03-16T12:58:52.941Z,100565.21
2023-03-16T13:01:31.679Z,100568.28
2023-03-16T13:04:16.951Z,100570.77
2023-03-16T13:06:51.952Z,100571.61
2023-03-16T13:09:48.431Z,100578.52
2023-03-16T13:12:28.899Z,100577.38
2023-03-16T13:15:02.393Z,100579.95
2023-03-16T13:21:02.533Z,100585.21
2023-03-16T13:24:00.576Z,100588.54
2023-03-16T13:30:22.744Z,100589.86
2023-03-16T13:33:19.810Z,100594.83
2023-03-16T13:35:54.471Z,100597.17
2023-03-16T13:41:43.843Z,100606.15
2023-03-16T13:44:18.910Z,100605.27
2023-03-16T13:46:59.119Z,100607.17
2023-03-16T13:50:05.222Z,100607.29
2023-03-16T13:52:39.440Z,100612.98
2023-03-16T13:55:17.569Z,100613.15
2023-03-16T13:57:51.616Z,100614.91
2023-03-16T14:00:29.144Z,100615.70
2023-03-16T14:03:16.309Z,100621.92
2023-03-16T14:05:49.777Z,100617.23
2023-03-16T14:08:24.827Z,100616.73
2023-03-16T14:11:01.073Z,100619.67
2023-03-16T14:13:39.396Z,100626.33
2023-03-16T14:16:18.375Z,100620.05
2023-03-16T14:18:53.841Z,100628.13
2023-03-16T14:21:28.726Z,100629.27
2023-03-16T14:24:04.595Z,100632.83
2023-03-16T14:26:45.049Z,100635.38
2023-03-16T14:29:27.194Z,100634.97
2023-03-16T14:32:00.598Z,100640.78
2023-03-16T14:34:36.084Z,100642.23
2023-03-16T14:37:14.045Z,100646.64
2023-03-16T14:39:47.324Z,100648.23
2023-03-16T14:42:22.815Z,100649.81
2023-03-16T14:44:56.092Z,100651.80
2023-03-16T14:47:32.240Z,100655.55
2023-03-16T14:50:08.669Z,100659.23
2023-03-16T14:52:41.689Z,100661.59
2023-03-16T14:55:17.830Z,100664.32
2023-03-16T14:57:51.471Z,100667.52
2023-03-16T15:00:25.700Z,100673.69
2023-03-16T15:03:07.649Z,100680.16
2023-03-16T15:05:42.101Z,100681.82
2023-03-16T15:08:18.431Z,100686.16
2023-03-16T15:10:50.917Z,100691.65
2023-03-16T15:13:35.535Z,100695.21
2023-03-16T15:16:16.568Z,100695.60
2023-03-16T15:18:49.147Z,100698.17
2023-03-16T15:21:26.305Z,100702.33
2023-03-16T15:24:00.128Z,100700.21
2023-03-16T15:26:32.878Z,100699.01
2023-03-16T15:29:08.802Z,100704.04
2023-03-16T15:31:41.137Z,100710.55
2023-03-16T15:34:13.738Z,100716.81
2023-03-16T15:36:44.475Z,100721.40
2023-03-16T15:39:23.428Z,100731.20
2023-03-16T15:41:55.809Z,100737.58
2023-03-16T15:44:28.387Z,100743.70
2023-03-16T15:47:01.550Z,100751.80
2023-03-16T15:49:45.072Z,100754.90
2023-03-16T15:52:27.180Z,100761.02
2023-03-16T15:55:04.589Z,100765.40
2023-03-16T15:57:39.389Z,100770.54
2023-03-16T16:00:22.684Z,100774.54
2023-03-16T16:02:55.056Z,100778.55
2023-03-16T16:05:27.794Z,100781.77
2023-03-16T16:08:00.908Z,100786.04
2023-03-16T16:10:34.342Z,100785.23
2023-03-16T16:13:07.309Z,100795.35
2023-03-16T16:15:41.592Z,100797.70
2023-03-16T16:18:30.509Z,100803.03
2023-03-16T16:21:03.936Z,100804.25
2023-03-16T16:23:37.394Z,100809.59
2023-03-16T16:26:12.727Z,100813.70
2023-03-16T16:28:45.088Z,100822.73
2023-03-16T16:31:17.494Z,100824.46
2023-03-16T16:33:50.382Z,100831.88
2023-03-16T16:36:22.806Z,100833.60
2023-03-16T16:38:57.907Z,100833.91
2023-03-16T16:41:32.012Z,100848.08
2023-03-16T16:44:08.548Z,100855.60
2023-03-16T16:46:42.900Z,100863.95
2023-03-16T16:49:19.631Z,100867.17
2023-03-16T16:51:52.723Z,100867.95
2023-03-16T16:54:27.166Z,100873.50
2023-03-16T16:57:00.883Z,100874.70
2023-03-16T16:59:35.142Z,100874.95
2023-03-16T17:02:25.131Z,100872.95
2023-03-16T17:04:58.121Z,100878.80
2023-03-16T17:07:28.861Z,100888.30
2023-03-16T17:10:01.329Z,100896.30
2023-03-16T17:12:35.763Z,100897.95
2023-03-16T17:15:22.293Z,100904.55
2023-03-16T17:17:57.011Z,100905.04
2023-03-16T17:20:30.171Z,100910.27
2023-03-16T17:23:02.693Z,100915.32
2023-03-16T17:25:37.036Z,100922.88
2023-03-16T17:28:10.248Z,100926.36
2023-03-16T17:30:42.827Z,100924.52
2023-03-16T17:33:14.912Z,100926.59
2023-03-16T17:35:47.752Z,100926.10
2023-03-16T17:38:23.322Z,100936.95
2023-03-16T17:40:57.409Z,100935.50
2023-03-16T17:43:33.226Z,100940.96
2023-03-16T17:46:17.704Z,100943.42
2023-03-16T17:48:53.106Z,100946.64
2023-03-16T17:54:38.508Z,100948.60
2023-03-16T17:57:28.425Z,100950.73
2023-03-16T18:00:02.562Z,100956.13
2023-03-16T18:02:45.326Z,100959.16
2023-03-16T18:05:24.030Z,100964.48
2023-03-16T18:11:00.060Z,100967.40
2023-03-16T18:13:36.390Z,100972.46
2023-03-16T18:16:10.298Z,100974.25
2023-03-16T18:19:05.804Z,100978.63
2023-03-16T18:21:39.161Z,100982.44
2023-03-16T18:24:19.839Z,100987.05
2023-03-16T18:26:53.139Z,100987.52
2023-03-16T18:29:39.592Z,100988.22
2023-03-16T18:32:29.088Z,100987.59
2023-03-16T18:35:03.948Z,100993.69
2023-03-16T18:37:37.873Z,100997.18
2023-03-16T18:40:15.935Z,101001.69
2023-03-16T18:45:49.926Z,101005.94
2023-03-16T18:48:34.347Z,101008.90
2023-03-16T18:51:09.970Z,101017.41
2023-03-16T18:53:42.576Z,101022.73
2023-03-16T18:56:29.934Z,101022.70
2023-03-16T18:59:02.477Z,101027.84
2023-03-16T19:01:36.180Z,101026.11
2023-03-16T19:04:16.373Z,101030.79
2023-03-16T19:07:09.996Z,101034.11
2023-03-16T19:09:48.224Z,101037.21
2023-03-16T19:12:21.240Z,101039.88
2023-03-16T19:14:57.187Z,101039.62
2023-03-16T19:17:43.891Z,101045.15
2023-03-16T19:20:20.182Z,101049.89
2023-03-16T19:22:54.543Z,101052.33
2023-03-16T19:25:29.677Z,101052.38
2023-03-16T19:28:07.300Z,101052.56
2023-03-16T19:47:26.250Z,101064.39
2023-03-16T19:50:04.498Z,101079.27
2023-03-16T19:52:37.411Z,101088.00
2023-03-16T19:55:14.670Z,101090.86
2023-03-16T19:58:02.573Z,101094.42
2023-03-16T20:00:35.320Z,101098.45
2023-03-16T20:03:12.518Z,101101.14
2023-03-16T20:05:50.148Z,101103.20
2023-03-16T20:08:27.576Z,101106.67
2023-03-16T20:11:04.994Z,101111.50
2023-03-16T20:13:38.023Z,101114.07
2023-03-16T20:16:27.274Z,101117.59
2023-03-16T20:19:06.828Z,101119.63
2023-03-16T20:21:53.507Z,101126.25
2023-03-16T20:24:32.521Z,101132.39
2023-03-16T20:27:20.742Z,101125.54
2023-03-16T20:29:56.728Z,101132.06
2023-03-16T20:32:32.887Z,101132.38
2023-03-16T20:35:05.665Z,101137.25
2023-03-16T20:37:38.749Z,101139.04
2023-03-16T20:40:25.462Z,101142.33
2023-03-16T20:42:57.949Z,101144.81
2023-03-16T20:45:31.974Z,101144.29
2023-03-16T20:48:08.666Z,101149.86
2023-03-16T20:50:41.550Z,101147.85
2023-03-16T20:53:12.161Z,101152.03
2023-03-16T20:55:44.717Z,101152.16
2023-03-16T20:58:28.471Z,101154.86
2023-03-16T21:01:02.288Z,101158.31
2023-03-16T21:03:34.803Z,101160.61
2023-03-16T21:06:07.859Z,101161.52
2023-03-16T21:08:40.396Z,101164.28
2023-03-16T21:11:23.547Z,101166.94
2023-03-16T21:13:56.395Z,101167.92
2023-03-16T21:16:29.158Z,101168.73
2023-03-16T21:19:01.809Z,101164.88
2023-03-16T21:21:34.384Z,101164.70
2023-03-16T21:24:08.187Z,101166.97
2023-03-16T21:26:42.109Z,101166.49
2023-03-16T21:29:17.791Z,101168.40
2023-03-16T21:31:50.603Z,101170.80
2023-03-16T21:34:25.123Z,101171.49
2023-03-16T21:36:59.461Z,101176.14
2023-03-16T21:39:32.578Z,101176.80
2023-03-16T21:42:04.942Z,101175.62
2023-03-16T21:44:37.786Z,101182.23
2023-03-16T21:47:17.006Z,101181.83
2023-03-16T21:49:49.766Z,101183.16
2023-03-16T21:52:26.866Z,101188.00
2023-03-16T21:55:01.214Z,101189.81
2023-03-16T21:57:33.716Z,101191.29
2023-03-16T22:00:07.438Z,101195.48
2023-03-16T22:02:40.113Z,101197.57
2023-03-16T22:05:14.436Z,101198.52
2023-03-16T22:07:47.651Z,101195.19
2023-03-16T22:10:21.440Z,101201.21
2023-03-16T22:12:53.701Z,101201.66
2023-03-16T22:15:26.305Z,101202.06
2023-03-16T22:17:57.106Z,101204.92
2023-03-16T22:20:29.536Z,101205.70
2023-03-16T22:23:02.250Z,101207.37
2023-03-16T22:25:34.732Z,101204.80
2023-03-16T22:28:14.227Z,101207.16
2023-03-16T22:30:47.260Z,101212.38
2023-03-16T22:33:23.928Z,101213.66
2023-03-16T22:35:56.246Z,101214.90
2023-03-16T22:38:28.813Z,101221.68
2023-03-16T22:41:01.217Z,101229.52
2023-03-16T22:43:35.503Z,101233.21
2023-03-16T22:46:08.025Z,101233.95
2023-03-16T22:48:40.422Z,101239.63
2023-03-16T22:51:19.691Z,101240.98
2023-03-16T22:53:53.788Z,101247.64
2023-03-16T22:56:26.474Z,101248.23
2023-03-16T22:58:57.734Z,101248.21
2023-03-16T23:01:34.966Z,101248.00
2023-03-16T23:04:16.309Z,101252.00
2023-03-16T23:06:53.599Z,101256.22
2023-03-16T23:09:26.575Z,101261.55
2023-03-16T23:11:59.572Z,101262.52
2023-03-16T23:14:33.458Z,101261.45
2023-03-16T23:17:06.830Z,101255.95
2023-03-16T23:19:39.278Z,101256.76
2023-03-16T23:22:13.582Z,101258.13
2023-03-16T23:24:46.149Z,101259.52
2023-03-16T23:27:21.578Z,101263.20
2023-03-16T23:29:54.104Z,101266.39
2023-03-16T23:32:26.767Z,101269.16
2023-03-16T23:34:57.673Z,101271.52
2023-03-16T23:37:30.051Z,101271.58
2023-03-16T23:40:03.930Z,101280.13
2023-03-16T23:42:36.406Z,101276.23
2023-03-16T23:45:13.571Z,101281.13
2023-03-16T23:47:46.108Z,101281.27
2023-03-16T23:50:17.053Z,101285.98
2023-03-16T23:52:49.485Z,101281.84
2023-03-16T23:55:22.048Z,101283.20
2023-03-16T23:57:52.778Z,101288.64
